Time;durP1;ratioP1;P1;durP2;ratioP2;P2;SDS_P1;SDS_P2;PMS_P1;PMS_P2;Temp;Humidity;BMP_temperature;BMP_pressure;BME280_temperature;BME280_humidity;BME280_pressure;Samples;Min_cycle;Max_cycle;Signal;HPM_P1;HPM_P2
2023/03/14 00:01:22;;;;;;;3.80;0.80;;;11.10;99.90;;;;;;7577889;19;20018;-71
2023/03/14 00:03:54;;;;;;;2.28;0.82;;;11.10;99.90;;;;;;7558101;19;20644;-73
2023/03/14 00:06:27;;;;;;;3.83;0.70;;;11.10;99.90;;;;;;7592721;19;20014;-73
2023/03/14 00:08:59;;;;;;;11.13;1.00;;;11.10;99.90;;;;;;7582334;19;20888;-74
2023/03/14 00:11:31;;;;;;;1.65;0.90;;;11.00;99.90;;;;;;7532974;19;20713;-74
2023/03/14 00:14:03;;;;;;;5.50;0.80;;;10.90;99.90;;;;;;7510147;19;21551;-74
2023/03/14 00:16:35;;;;;;;3.58;1.00;;;10.90;99.90;;;;;;7586524;19;20033;-73
2023/03/14 00:19:08;;;;;;;2.28;0.90;;;11.10;99.90;;;;;;7570549;19;20014;-72
2023/03/14 00:21:40;;;;;;;1.88;1.02;;;11.10;99.90;;;;;;7562191;19;20010;-73
2023/03/14 00:24:12;;;;;;;2.42;1.05;;;11.00;99.90;;;;;;7561582;19;20018;-71
2023/03/14 00:26:44;;;;;;;2.42;1.10;;;10.90;99.90;;;;;;7573259;19;20071;-74
2023/03/14 00:29:17;;;;;;;3.25;1.30;;;10.90;99.90;;;;;;7573677;19;20022;-73
2023/03/14 00:31:49;;;;;;;3.15;1.30;;;10.90;99.90;;;;;;7576728;19;20018;-73
2023/03/14 00:34:22;;;;;;;2.58;1.20;;;10.90;99.90;;;;;;7581567;19;20018;-72
2023/03/14 00:36:54;;;;;;;2.85;1.17;;;10.90;99.90;;;;;;7568578;19;20018;-74
2023/03/14 00:39:26;;;;;;;5.53;1.15;;;10.90;99.90;;;;;;7591913;19;20018;-73
2023/03/14 00:41:58;;;;;;;3.15;0.95;;;10.90;99.90;;;;;;7581939;19;20121;-73
2023/03/14 00:44:31;;;;;;;2.20;0.93;;;10.90;99.90;;;;;;7584420;19;20789;-74
2023/03/14 00:47:03;;;;;;;2.08;1.10;;;11.00;99.90;;;;;;7585751;19;20018;-74
2023/03/14 00:49:35;;;;;;;1.05;0.80;;;10.90;99.90;;;;;;7592941;19;20109;-73
2023/03/14 00:52:07;;;;;;;2.25;1.00;;;11.00;99.90;;;;;;7583166;19;20023;-73
2023/03/14 00:54:40;;;;;;;0.80;0.60;;;10.90;99.90;;;;;;7566022;19;20019;-73
2023/03/14 00:57:12;;;;;;;0.77;0.57;;;10.90;99.90;;;;;;7570621;19;20016;-72
2023/03/14 00:59:44;;;;;;;0.80;0.60;;;10.90;99.90;;;;;;7592930;19;20732;-72
2023/03/14 01:02:16;;;;;;;1.50;0.50;;;10.90;99.90;;;;;;7578221;19;20049;-73
2023/03/14 01:04:49;;;;;;;0.63;0.50;;;10.90;99.90;;;;;;7574065;19;20589;-73
2023/03/14 01:07:21;;;;;;;1.70;0.70;;;10.90;99.90;;;;;;7589222;19;20055;-72
2023/03/14 01:09:53;;;;;;;0.88;0.60;;;10.90;99.90;;;;;;7567242;19;20257;-72
2023/03/14 01:12:26;;;;;;;1.00;0.73;;;10.80;99.90;;;;;;7580977;19;20014;-73
2023/03/14 01:14:58;;;;;;;0.93;0.50;;;10.80;99.90;;;;;;7581578;19;20014;-73
2023/03/14 01:17:31;;;;;;;0.40;0.40;;;10.70;99.90;;;;;;7555938;19;20037;-73
2023/03/14 01:20:04;;;;;;;0.77;0.40;;;10.60;99.90;;;;;;7564736;19;20098;-73
2023/03/14 01:22:39;;;;;;;;;;;10.50;99.90;;;;;;7542536;19;20029;-73
2023/03/14 01:25:14;;;;;;;1.63;0.73;;;10.50;99.90;;;;;;7578035;19;20957;-73
2023/03/14 01:27:46;;;;;;;3.33;0.70;;;10.40;99.90;;;;;;7588473;19;20049;-73
2023/03/14 01:30:19;;;;;;;2.08;0.77;;;10.20;99.90;;;;;;7583096;19;20022;-74
2023/03/14 01:32:51;;;;;;;1.67;0.70;;;10.20;99.90;;;;;;7580021;19;20500;-72
2023/03/14 01:35:23;;;;;;;1.77;0.70;;;10.20;99.90;;;;;;7586974;19;20019;-74
2023/03/14 01:37:55;;;;;;;2.20;0.70;;;10.20;99.90;;;;;;7587623;19;20015;-72
2023/03/14 01:40:28;;;;;;;5.03;0.70;;;10.10;99.90;;;;;;7581778;19;20033;-73
2023/03/14 01:43:13;;;;;;;1.58;0.73;;;10.00;99.90;;;;;;7593656;19;20043;-72
2023/03/14 01:46:04;;;;;;;1.52;0.73;;;9.90;99.90;;;;;;7581402;19;20692;-72
2023/03/14 01:48:52;;;;;;;2.17;0.93;;;9.90;99.90;;;;;;7582144;19;20113;-73
2023/03/14 01:51:43;;;;;;;5.10;0.60;;;9.90;99.90;;;;;;7577730;19;21027;-73
2023/03/14 01:54:31;;;;;;;3.13;0.68;;;9.90;99.90;;;;;;7594827;19;20014;-73
2023/03/14 01:57:29;;;;;;;3.88;0.90;;;9.80;99.90;;;;;;7591955;19;20563;-73
2023/03/14 02:00:11;;;;;;;2.60;0.63;;;9.80;99.90;;;;;;7583261;19;20086;-72
2023/03/14 02:03:06;;;;;;;2.95;0.68;;;9.80;99.90;;;;;;7576563;19;20914;-74
2023/03/14 02:05:41;;;;;;;1.88;0.65;;;9.90;99.90;;;;;;7583314;19;20146;-73
2023/03/14 02:08:22;;;;;;;2.22;0.75;;;9.80;99.90;;;;;;7571705;19;20037;-73
2023/03/14 02:10:57;;;;;;;3.15;0.60;;;9.80;99.90;;;;;;7592683;19;20045;-74
2023/03/14 02:13:48;;;;;;;2.58;0.70;;;9.80;99.90;;;;;;7588293;19;20022;-75
2023/03/14 02:16:39;;;;;;;1.67;0.82;;;9.70;99.90;;;;;;7577684;19;20019;-74
2023/03/14 02:20:21;;;;;;;1.92;0.68;;;9.70;99.90;;;;;;7583618;19;20181;-75
2023/03/14 02:22:59;;;;;;;2.45;0.70;;;9.60;99.90;;;;;;7572597;19;20054;-75
2023/03/14 02:25:53;;;;;;;1.83;0.43;;;9.60;99.90;;;;;;7580753;19;21672;-75
2023/03/14 02:28:25;;;;;;;2.75;0.75;;;9.60;99.90;;;;;;7581515;19;21168;-75
2023/03/14 02:31:00;;;;;;;1.10;0.68;;;9.60;99.90;;;;;;7567929;19;20553;-75
2023/03/14 02:33:38;;;;;;;3.95;0.60;;;9.50;99.90;;;;;;7583783;19;20030;-75
2023/03/14 02:36:14;;;;;;;1.33;0.73;;;9.40;99.90;;;;;;7575094;19;20030;-75
2023/03/14 02:38:53;;;;;;;3.58;0.60;;;9.40;99.90;;;;;;7601099;19;20022;-75
2023/03/14 02:41:30;;;;;;;2.80;0.65;;;9.30;99.90;;;;;;7546007;19;20006;-74
2023/03/14 02:44:06;;;;;;;0.73;0.60;;;9.30;99.90;;;;;;7583513;19;20830;-75
2023/03/14 02:46:38;;;;;;;1.50;0.55;;;9.30;99.90;;;;;;7583918;19;20347;-75
2023/03/14 02:49:14;;;;;;;0.52;0.30;;;9.20;99.90;;;;;;7578940;19;20002;-75
2023/03/14 02:51:47;;;;;;;1.40;0.50;;;9.30;99.90;;;;;;7589523;19;21375;-74
2023/03/14 02:54:20;;;;;;;1.03;0.53;;;9.30;99.90;;;;;;7586360;19;20052;-74
2023/03/14 02:56:53;;;;;;;2.72;0.35;;;9.20;99.90;;;;;;7561017;19;20010;-74
2023/03/14 02:59:25;;;;;;;2.10;0.63;;;9.30;99.90;;;;;;7581660;19;20102;-75
2023/03/14 03:02:02;;;;;;;1.85;0.88;;;9.20;99.90;;;;;;7578217;19;20029;-74
2023/03/14 03:04:36;;;;;;;0.30;0.30;;;9.20;99.90;;;;;;7575580;19;20018;-75
2023/03/14 03:07:08;;;;;;;3.13;0.40;;;9.20;99.90;;;;;;7596257;19;20139;-74
2023/03/14 03:09:41;;;;;;;3.03;0.50;;;9.20;99.90;;;;;;7583549;19;20010;-74
2023/03/14 03:12:13;;;;;;;1.33;0.50;;;9.10;99.90;;;;;;7571246;19;20026;-73
2023/03/14 03:14:45;;;;;;;1.85;0.43;;;9.10;99.90;;;;;;7582195;19;20029;-74
2023/03/14 03:17:19;;;;;;;1.17;0.45;;;9.10;99.90;;;;;;7591942;19;20793;-75
2023/03/14 03:19:51;;;;;;;1.85;0.40;;;9.10;99.90;;;;;;7579802;19;20086;-74
2023/03/14 03:22:23;;;;;;;1.23;0.40;;;8.90;99.90;;;;;;7573045;19;21666;-74
2023/03/14 03:24:56;;;;;;;1.10;0.43;;;8.70;99.90;;;;;;7566241;19;20021;-74
2023/03/14 03:27:31;;;;;;;1.15;0.77;;;8.80;99.90;;;;;;7571954;19;20144;-75
2023/03/14 03:30:05;;;;;;;0.50;0.30;;;8.80;99.90;;;;;;7575179;19;20022;-74
2023/03/14 03:32:38;;;;;;;0.75;0.40;;;8.80;99.90;;;;;;7583316;19;20042;-75
2023/03/14 03:35:11;;;;;;;0.30;0.30;;;8.80;99.90;;;;;;7590184;19;20068;-74
2023/03/14 03:37:43;;;;;;;0.63;0.32;;;8.90;99.90;;;;;;7590033;19;20018;-74
2023/03/14 03:40:15;;;;;;;0.47;0.30;;;8.80;99.90;;;;;;7587062;19;20458;-75
2023/03/14 03:42:48;;;;;;;0.40;0.40;;;8.80;99.90;;;;;;7586131;19;20029;-74
2023/03/14 03:45:23;;;;;;;0.85;0.30;;;8.80;99.90;;;;;;7566024;19;20007;-74
2023/03/14 03:47:59;;;;;;;1.40;0.63;;;8.70;99.90;;;;;;7583614;19;20018;-72
2023/03/14 03:50:31;;;;;;;2.78;0.40;;;8.80;99.90;;;;;;7582036;19;20030;-72
2023/03/14 03:53:04;;;;;;;0.68;0.32;;;8.60;99.90;;;;;;7579660;19;20018;-74
2023/03/14 03:55:36;;;;;;;0.85;0.50;;;8.70;99.90;;;;;;7572959;19;20618;-74
2023/03/14 03:58:08;;;;;;;0.75;0.55;;;8.60;99.90;;;;;;7585241;19;20372;-74
2023/03/14 04:00:41;;;;;;;0.93;0.30;;;8.60;99.90;;;;;;7573544;19;20026;-74
2023/03/14 04:03:13;;;;;;;0.30;0.30;;;8.70;99.90;;;;;;7586704;19;20018;-73
2023/03/14 04:05:45;;;;;;;1.30;0.30;;;8.70;99.90;;;;;;7587127;19;20850;-73
2023/03/14 04:08:17;;;;;;;0.95;0.50;;;8.50;99.90;;;;;;7571993;19;20033;-74
2023/03/14 04:10:55;;;;;;;0.20;0.20;;;8.50;99.90;;;;;;7538953;19;20018;-74
2023/03/14 04:13:36;;;;;;;0.35;0.35;;;8.50;99.90;;;;;;7555747;19;20057;-74
2023/03/14 04:16:23;;;;;;;0.22;0.22;;;8.40;99.90;;;;;;7568900;19;20130;-73
2023/03/14 04:19:00;;;;;;;0.20;0.20;;;8.40;99.90;;;;;;7577395;19;20053;-74
2023/03/14 04:21:32;;;;;;;1.60;0.30;;;8.40;99.90;;;;;;7554757;19;20025;-73
2023/03/14 04:24:04;;;;;;;0.25;0.25;;;8.30;99.90;;;;;;7586504;19;20271;-74
2023/03/14 04:26:39;;;;;;;1.85;0.35;;;8.30;99.90;;;;;;7574883;19;20849;-74
2023/03/14 04:29:13;;;;;;;0.30;0.30;;;8.30;99.90;;;;;;7572293;19;20026;-73
2023/03/14 04:31:48;;;;;;;0.38;0.38;;;8.40;99.90;;;;;;7584510;19;20015;-74
2023/03/14 04:34:20;;;;;;;0.80;0.45;;;8.20;99.90;;;;;;7581232;19;20010;-73
2023/03/14 04:36:56;;;;;;;1.83;0.40;;;8.10;99.90;;;;;;7581678;19;20019;-73
2023/03/14 04:39:35;;;;;;;0.40;0.22;;;8.20;99.90;;;;;;7564421;19;20057;-74
2023/03/14 04:42:15;;;;;;;0.20;0.20;;;8.20;99.90;;;;;;7556447;19;20042;-73
2023/03/14 04:44:49;;;;;;;2.45;0.43;;;8.30;99.90;;;;;;7561878;19;20082;-74
2023/03/14 04:47:24;;;;;;;0.20;0.20;;;8.30;99.90;;;;;;7566846;19;20015;-74
2023/03/14 04:49:58;;;;;;;0.32;0.30;;;8.30;99.90;;;;;;7585266;19;20022;-74
2023/03/14 04:52:30;;;;;;;3.50;2.00;;;8.20;99.90;;;;;;7564663;19;20018;-73
2023/03/14 04:55:04;;;;;;;1.48;0.30;;;8.10;99.90;;;;;;7557657;19;20277;-74
2023/03/14 04:57:36;;;;;;;0.47;0.40;;;8.30;99.90;;;;;;7571489;19;20019;-74
2023/03/14 05:00:12;;;;;;;1.00;0.40;;;8.20;99.90;;;;;;7580836;19;20017;-73
2023/03/14 05:02:57;;;;;;;1.17;0.47;;;8.30;99.90;;;;;;7550334;19;20014;-73
2023/03/14 05:05:37;;;;;;;1.10;0.40;;;8.20;99.90;;;;;;7562308;19;20106;-73
2023/03/14 05:08:16;;;;;;;0.30;0.30;;;8.20;99.90;;;;;;7574747;19;20019;-73
2023/03/14 05:11:02;;;;;;;1.25;0.65;;;8.30;99.90;;;;;;7570555;19;20021;-75
2023/03/14 05:13:43;;;;;;;0.73;0.40;;;8.30;99.90;;;;;;7561973;19;20866;-73
2023/03/14 05:16:26;;;;;;;0.75;0.40;;;8.10;99.90;;;;;;7587970;19;20018;-74
2023/03/14 05:19:21;;;;;;;0.70;0.60;;;8.20;99.90;;;;;;7572455;19;20018;-73
2023/03/14 05:22:03;;;;;;;0.60;0.50;;;8.30;99.90;;;;;;7579819;19;20041;-73
2023/03/14 05:24:56;;;;;;;1.17;0.50;;;8.30;99.90;;;;;;7579327;19;20026;-74
2023/03/14 05:27:43;;;;;;;0.38;0.30;;;8.20;99.90;;;;;;7572892;19;21430;-73
2023/03/14 05:30:34;;;;;;;0.40;0.40;;;8.10;99.90;;;;;;7564761;19;20480;-74
2023/03/14 05:33:25;;;;;;;1.25;0.70;;;8.20;99.90;;;;;;7550055;19;20022;-72
2023/03/14 05:36:14;;;;;;;3.25;1.45;;;8.20;99.90;;;;;;7566255;19;20015;-73
2023/03/14 05:39:05;;;;;;;10.63;4.53;;;8.10;99.90;;;;;;7588366;19;20057;-73
2023/03/14 05:41:56;;;;;;;16.90;5.18;;;8.00;99.90;;;;;;7588780;19;20979;-73
2023/03/14 05:44:49;;;;;;;3.10;1.33;;;8.00;99.90;;;;;;7571158;19;20026;-73
2023/03/14 05:47:40;;;;;;;1.63;0.68;;;8.10;99.90;;;;;;7566083;19;20011;-73
2023/03/14 05:50:32;;;;;;;9.60;3.90;;;8.20;99.90;;;;;;7566916;19;20075;-73
2023/03/14 05:53:25;;;;;;;1.13;0.60;;;8.10;99.90;;;;;;7554681;19;20024;-73
2023/03/14 05:56:17;;;;;;;2.78;0.95;;;8.20;99.90;;;;;;7544212;19;20035;-73
2023/03/14 05:59:03;;;;;;;2.00;1.33;;;8.10;99.90;;;;;;7572414;19;20964;-73
2023/03/14 06:01:58;;;;;;;4.20;2.05;;;8.10;99.90;;;;;;7563744;19;20022;-73
2023/03/14 06:04:33;;;;;;;2.35;1.38;;;8.00;99.90;;;;;;7582029;19;20384;-74
2023/03/14 06:07:06;;;;;;;4.55;2.90;;;8.10;99.90;;;;;;7572857;19;20064;-73
2023/03/14 06:09:39;;;;;;;4.63;2.50;;;8.10;99.90;;;;;;7564861;19;20065;-73
2023/03/14 06:12:12;;;;;;;1.30;0.90;;;8.00;99.90;;;;;;7586579;19;20291;-74
2023/03/14 06:14:47;;;;;;;1.48;0.80;;;8.10;99.90;;;;;;7502056;19;20298;-75
2023/03/14 06:17:20;;;;;;;7.20;1.05;;;8.10;99.90;;;;;;7513646;19;20479;-74
2023/03/14 06:19:58;;;;;;;1.58;0.60;;;8.10;99.90;;;;;;7558990;19;20023;-74
2023/03/14 06:22:30;;;;;;;0.45;0.45;;;8.20;99.90;;;;;;7567356;19;20049;-72
2023/03/14 06:25:03;;;;;;;1.58;0.70;;;8.20;99.90;;;;;;7578826;19;20018;-72
2023/03/14 06:27:35;;;;;;;1.63;1.20;;;8.30;99.90;;;;;;7602874;19;20637;-74
2023/03/14 06:30:08;;;;;;;2.35;0.93;;;8.20;99.90;;;;;;7573775;19;20053;-73
2023/03/14 06:32:41;;;;;;;1.40;1.17;;;8.20;99.90;;;;;;7533959;19;20026;-72
2023/03/14 06:35:17;;;;;;;4.38;1.10;;;8.30;99.90;;;;;;7550027;19;20013;-72
2023/03/14 06:37:49;;;;;;;1.08;0.82;;;8.20;99.90;;;;;;7569329;19;20251;-72
2023/03/14 06:40:22;;;;;;;2.22;1.30;;;8.30;99.90;;;;;;7593067;19;20047;-73
2023/03/14 06:43:11;;;;;;;3.90;1.23;;;8.30;99.90;;;;;;7590808;19;20018;-73
2023/03/14 06:45:46;;;;;;;2.97;1.38;;;8.30;99.90;;;;;;7572815;19;25439;-73
2023/03/14 06:48:18;;;;;;;4.50;1.75;;;8.30;99.90;;;;;;7585071;19;20033;-72
2023/03/14 06:50:56;;;;;;;3.22;1.40;;;8.30;99.90;;;;;;7590212;19;20102;-72
2023/03/14 06:53:28;;;;;;;2.03;1.33;;;8.40;99.90;;;;;;7591430;19;20019;-72
2023/03/14 06:56:04;;;;;;;2.80;1.50;;;8.60;99.90;;;;;;7601881;19;20018;-72
2023/03/14 06:58:37;;;;;;;1.65;1.00;;;8.60;99.90;;;;;;7606765;19;20373;-72
2023/03/14 07:01:23;;;;;;;2.55;0.98;;;8.50;99.90;;;;;;7592138;19;20023;-73
2023/03/14 07:03:56;;;;;;;2.55;0.90;;;8.50;99.90;;;;;;7593955;19;20547;-72
2023/03/14 07:06:29;;;;;;;5.45;1.15;;;8.50;99.90;;;;;;7608443;19;20055;-72
2023/03/14 07:09:01;;;;;;;4.25;1.00;;;8.50;99.90;;;;;;7581925;19;20503;-73
2023/03/14 07:11:38;;;;;;;3.67;1.00;;;8.50;99.90;;;;;;7574948;19;20018;-72
2023/03/14 07:14:11;;;;;;;2.45;1.65;;;8.50;99.90;;;;;;7564075;19;20021;-72
2023/03/14 07:16:43;;;;;;;2.38;1.20;;;8.50;99.90;;;;;;7601312;19;20022;-72
2023/03/14 07:19:15;;;;;;;2.42;1.10;;;8.50;99.90;;;;;;7603170;19;21046;-72
2023/03/14 07:21:47;;;;;;;3.35;1.30;;;8.50;99.90;;;;;;7605226;19;20086;-72
2023/03/14 07:24:25;;;;;;;2.70;1.00;;;8.60;99.90;;;;;;7594178;19;20574;-72
2023/03/14 07:27:06;;;;;;;1.15;0.70;;;8.60;99.90;;;;;;7602458;19;20014;-72
2023/03/14 07:29:42;;;;;;;3.65;1.10;;;8.60;99.90;;;;;;7597859;19;20022;-72
2023/03/14 07:32:15;;;;;;;1.90;1.17;;;8.60;99.90;;;;;;7598461;19;20018;-72
2023/03/14 07:34:48;;;;;;;1.88;0.93;;;8.70;99.90;;;;;;7595444;19;20018;-71
2023/03/14 07:37:20;;;;;;;2.08;1.25;;;8.70;99.90;;;;;;7598480;19;20025;-73
2023/03/14 07:39:52;;;;;;;2.53;1.17;;;8.80;99.90;;;;;;7610030;19;20526;-72
2023/03/14 07:42:28;;;;;;;1.58;0.90;;;8.80;99.90;;;;;;7609387;19;20029;-72
2023/03/14 07:45:15;;;;;;;1.65;0.85;;;8.90;99.90;;;;;;7615396;19;20014;-72
2023/03/14 07:47:49;;;;;;;0.93;0.60;;;8.90;99.90;;;;;;7615295;19;20552;-73
2023/03/14 07:50:21;;;;;;;2.42;0.73;;;9.00;99.90;;;;;;7629204;19;20027;-73
2023/03/14 07:52:54;;;;;;;1.20;0.40;;;9.00;99.90;;;;;;7619792;19;20018;-73
2023/03/14 07:55:26;;;;;;;0.70;0.50;;;9.10;99.90;;;;;;7619070;19;20022;-73
2023/03/14 07:57:58;;;;;;;0.90;0.50;;;9.10;99.90;;;;;;7597217;19;20014;-73
2023/03/14 08:00:30;;;;;;;0.57;0.57;;;9.20;99.90;;;;;;7592119;19;20029;-73
2023/03/14 08:03:02;;;;;;;0.80;0.70;;;9.20;99.90;;;;;;7595178;19;20676;-73
2023/03/14 08:05:36;;;;;;;0.60;0.60;;;9.30;99.90;;;;;;7610233;19;20022;-73
2023/03/14 08:08:09;;;;;;;0.80;0.57;;;9.30;99.90;;;;;;7597268;19;20026;-73
2023/03/14 08:10:41;;;;;;;0.82;0.40;;;9.30;99.90;;;;;;7590065;19;20023;-73
2023/03/14 08:13:13;;;;;;;0.47;0.47;;;9.40;99.90;;;;;;7601145;19;20022;-73
2023/03/14 08:15:49;;;;;;;1.35;0.50;;;9.40;99.90;;;;;;7606300;19;20019;-73
2023/03/14 08:18:21;;;;;;;0.70;0.50;;;9.40;99.90;;;;;;7610496;19;20018;-73
2023/03/14 08:20:53;;;;;;;2.78;0.52;;;9.50;99.90;;;;;;7596197;19;20014;-72
2023/03/14 08:23:25;;;;;;;1.17;0.70;;;9.50;99.90;;;;;;7591339;19;20026;-73
2023/03/14 08:25:57;;;;;;;1.30;0.80;;;9.60;99.90;;;;;;7598941;19;20082;-73
2023/03/14 08:28:32;;;;;;;1.75;0.88;;;9.60;99.90;;;;;;7595144;19;20865;-72
2023/03/14 08:31:04;;;;;;;3.25;1.30;;;9.60;99.90;;;;;;7593063;19;20022;-71
2023/03/14 08:33:36;;;;;;;3.22;1.40;;;9.60;99.90;;;;;;7598767;19;20025;-73
2023/03/14 08:36:10;;;;;;;2.53;1.35;;;9.70;99.90;;;;;;7602889;19;20023;-73
2023/03/14 08:38:42;;;;;;;2.05;1.30;;;9.80;99.90;;;;;;7600851;19;20069;-73
2023/03/14 08:41:14;;;;;;;3.35;0.90;;;9.80;99.90;;;;;;7614314;19;20022;-74
2023/03/14 08:43:46;;;;;;;1.98;0.70;;;9.80;99.90;;;;;;7595747;19;20039;-73
2023/03/14 08:46:19;;;;;;;0.95;0.70;;;9.80;99.90;;;;;;7606291;19;20058;-72
2023/03/14 08:48:51;;;;;;;0.50;0.40;;;9.80;99.90;;;;;;7598601;19;20486;-73
2023/03/14 08:51:23;;;;;;;2.80;0.70;;;10.00;99.90;;;;;;7608755;19;20022;-73
2023/03/14 08:53:55;;;;;;;0.60;0.52;;;10.00;99.90;;;;;;7599831;19;20377;-72
2023/03/14 08:56:27;;;;;;;2.40;0.70;;;10.00;99.90;;;;;;7607770;19;20078;-72
2023/03/14 08:58:59;;;;;;;2.83;0.60;;;10.00;99.90;;;;;;7607970;19;20018;-72
2023/03/14 09:01:32;;;;;;;3.17;0.68;;;10.10;99.90;;;;;;7619172;19;20598;-72
2023/03/14 09:04:04;;;;;;;1.23;0.60;;;10.10;99.90;;;;;;7616422;19;20025;-73
2023/03/14 09:06:37;;;;;;;3.20;0.90;;;10.10;99.90;;;;;;7616954;19;20010;-73
2023/03/14 09:09:09;;;;;;;1.15;0.70;;;10.10;99.90;;;;;;7598893;19;20041;-73
2023/03/14 09:11:42;;;;;;;1.70;0.82;;;10.10;99.90;;;;;;7609520;19;20085;-73
2023/03/14 09:14:14;;;;;;;1.00;0.77;;;10.10;99.90;;;;;;7619668;19;20643;-72
2023/03/14 09:16:46;;;;;;;1.45;0.82;;;10.10;99.90;;;;;;7618757;19;20021;-73
2023/03/14 09:19:18;;;;;;;1.45;0.77;;;10.10;99.90;;;;;;7611339;19;20011;-73
2023/03/14 09:21:51;;;;;;;1.15;0.65;;;10.10;99.90;;;;;;7614119;19;20120;-73
2023/03/14 09:24:23;;;;;;;1.48;0.70;;;10.00;99.90;;;;;;7605869;19;20035;-73
2023/03/14 09:26:56;;;;;;;1.30;0.80;;;10.10;99.90;;;;;;7587845;19;20467;-72
2023/03/14 09:29:29;;;;;;;;;;;10.10;99.90;;;;;;7613849;19;20082;-72
2023/03/14 09:32:01;;;;;;;1.77;0.70;;;10.00;99.90;;;;;;7608804;19;19919;-72
2023/03/14 09:34:33;;;;;;;1.05;0.73;;;10.00;99.90;;;;;;7555929;19;20511;-73
2023/03/14 09:37:08;;;;;;;2.63;0.65;;;10.00;99.90;;;;;;7605440;19;20522;-71
2023/03/14 09:39:40;;;;;;;3.22;0.90;;;10.00;99.90;;;;;;7609854;19;20018;-72
2023/03/14 09:42:20;;;;;;;1.95;1.13;;;9.90;99.90;;;;;;7592934;19;20023;-72
2023/03/14 09:45:05;;;;;;;2.92;1.63;;;9.90;99.90;;;;;;7600606;19;20018;-72
2023/03/14 09:47:39;;;;;;;3.28;1.60;;;9.90;99.90;;;;;;7604063;19;20094;-72
2023/03/14 09:50:42;;;;;;;0.80;0.80;;;10.00;99.90;;;;;;7587470;19;20019;-72
2023/03/14 09:53:18;;;;;;;0.85;0.60;;;9.90;99.90;;;;;;7586042;19;20372;-72
2023/03/14 09:55:52;;;;;;;0.82;0.50;;;10.00;99.90;;;;;;7598826;19;20019;-72
2023/03/14 09:58:25;;;;;;;2.42;0.70;;;10.00;99.90;;;;;;7599013;19;20031;-73
2023/03/14 10:00:59;;;;;;;2.15;1.35;;;10.00;99.90;;;;;;7603288;19;20117;-72
2023/03/14 10:03:34;;;;;;;1.73;0.80;;;10.00;99.90;;;;;;7593878;19;20106;-73
2023/03/14 10:06:16;;;;;;;3.97;1.27;;;10.10;99.90;;;;;;7598016;19;20010;-73
2023/03/14 10:08:48;;;;;;;2.08;0.95;;;10.20;99.90;;;;;;7600374;19;20094;-73
2023/03/14 10:11:20;;;;;;;2.28;1.30;;;10.20;99.90;;;;;;7605957;19;21013;-72
2023/03/14 10:14:12;;;;;;;2.50;1.17;;;10.30;99.90;;;;;;7600271;19;21477;-72
2023/03/14 10:16:46;;;;;;;2.78;1.50;;;10.30;99.90;;;;;;7605277;19;20556;-72
2023/03/14 10:19:18;;;;;;;3.30;2.00;;;10.40;99.90;;;;;;7604808;19;20011;-73
2023/03/14 10:21:53;;;;;;;3.60;1.67;;;10.50;99.90;;;;;;7606409;19;20026;-72
2023/03/14 10:24:25;;;;;;;2.25;1.67;;;10.60;99.90;;;;;;7595724;19;20018;-73
2023/03/14 10:27:19;;;;;;;1.83;1.00;;;10.70;99.90;;;;;;7601638;19;20876;-73
2023/03/14 10:29:55;;;;;;;1.45;0.95;;;10.80;99.90;;;;;;7607160;19;20105;-73
2023/03/14 10:32:33;;;;;;;4.53;1.00;;;10.90;99.90;;;;;;7599687;19;20023;-73
2023/03/14 10:35:05;;;;;;;2.60;1.00;;;11.10;99.90;;;;;;7599212;19;20019;-73
2023/03/14 10:37:49;;;;;;;1.77;0.73;;;11.30;99.90;;;;;;7605249;19;20018;-72
2023/03/14 10:40:52;;;;;;;26.83;2.20;;;11.40;98.80;;;;;;7601485;19;20010;-74
2023/03/14 10:43:33;;;;;;;1.77;0.70;;;11.40;98.30;;;;;;7595420;19;20778;-73
2023/03/14 10:46:09;;;;;;;3.80;0.93;;;11.40;97.70;;;;;;7598159;19;20112;-73
2023/03/14 10:49:06;;;;;;;2.45;0.50;;;11.60;98.60;;;;;;7600088;19;20017;-73
2023/03/14 10:51:38;;;;;;;1.70;0.50;;;11.80;95.50;;;;;;7597386;19;20027;-73
2023/03/14 10:54:20;;;;;;;1.05;0.57;;;11.80;97.60;;;;;;7588887;19;20096;-73
2023/03/14 10:56:58;;;;;;;2.83;0.60;;;12.00;94.50;;;;;;7603659;19;20023;-73
2023/03/14 10:59:37;;;;;;;1.92;0.98;;;12.00;93.70;;;;;;7580358;19;20019;-74
2023/03/14 11:02:31;;;;;;;6.60;0.90;;;12.10;94.50;;;;;;7588893;19;20025;-73
2023/03/14 11:05:12;;;;;;;0.57;0.50;;;12.10;93.40;;;;;;7593812;19;20043;-73
2023/03/14 11:07:45;;;;;;;0.68;0.60;;;12.00;93.00;;;;;;7605111;19;20002;-73
2023/03/14 11:10:35;;;;;;;4.63;1.30;;;12.00;91.60;;;;;;7598060;19;20022;-73
2023/03/14 11:13:07;;;;;;;3.92;1.27;;;12.00;94.40;;;;;;7597407;19;20026;-73
2023/03/14 11:15:39;;;;;;;1.40;0.60;;;12.00;94.20;;;;;;7601963;19;20018;-73
2023/03/14 11:18:49;;;;;;;5.60;0.88;;;12.10;93.50;;;;;;7583584;19;20846;-74
2023/03/14 11:21:52;;;;;;;0.90;0.70;;;11.90;92.80;;;;;;7578793;19;20046;-73
2023/03/14 11:24:36;;;;;;;2.60;1.20;;;11.80;91.60;;;;;;7591269;19;20022;-73
2023/03/14 11:27:24;;;;;;;1.75;0.80;;;11.90;92.60;;;;;;7578987;19;20697;-73
2023/03/14 11:30:06;;;;;;;2.75;0.93;;;11.90;93.40;;;;;;7572285;19;20129;-73
2023/03/14 11:33:06;;;;;;;1.95;0.80;;;11.90;92.10;;;;;;7583394;19;20018;-73
2023/03/14 11:35:38;;;;;;;1.40;0.50;;;12.00;91.60;;;;;;7593307;19;20093;-72
2023/03/14 11:38:38;;;;;;;0.82;0.40;;;12.20;91.60;;;;;;7582365;19;20089;-73
2023/03/14 11:41:19;;;;;;;0.77;0.30;;;12.30;89.10;;;;;;7587460;19;20073;-73
2023/03/14 11:44:02;;;;;;;0.30;0.30;;;12.50;87.60;;;;;;7583355;19;20019;-73
2023/03/14 11:46:39;;;;;;;0.35;0.32;;;12.50;83.20;;;;;;7582221;19;20079;-73
2023/03/14 11:49:53;;;;;;;0.55;0.25;;;12.60;80.60;;;;;;7587732;19;20014;-74
2023/03/14 11:52:49;;;;;;;0.65;0.30;;;12.80;78.10;;;;;;7566546;19;20015;-73
2023/03/14 11:55:28;;;;;;;1.35;0.40;;;13.00;76.50;;;;;;7584543;19;20475;-73
2023/03/14 11:58:23;;;;;;;0.28;0.28;;;12.90;75.60;;;;;;7578959;19;20146;-74
2023/03/14 12:00:57;;;;;;;2.75;0.50;;;13.00;74.60;;;;;;7584147;19;20086;-73
2023/03/14 12:03:50;;;;;;;0.70;0.30;;;12.90;76.90;;;;;;7576896;19;20829;-74
2023/03/14 12:06:33;;;;;;;0.85;0.30;;;12.90;76.70;;;;;;7582388;19;20440;-73
2023/03/14 12:09:07;;;;;;;2.05;0.20;;;13.00;77.30;;;;;;7584006;19;20677;-74
2023/03/14 12:11:41;;;;;;;;;;;13.10;76.10;;;;;;7580087;19;20101;-74
2023/03/14 12:14:43;;;;;;;0.50;0.30;;;13.10;72.30;;;;;;7581846;19;19933;-74
2023/03/14 12:17:34;;;;;;;0.73;0.22;;;13.10;72.60;;;;;;7579130;19;20015;-74
2023/03/14 12:20:20;;;;;;;0.45;0.43;;;13.20;72.70;;;;;;7577579;19;20045;-73
2023/03/14 12:22:55;;;;;;;1.25;0.60;;;13.30;74.20;;;;;;7566970;19;20053;-74
2023/03/14 12:25:30;;;;;;;1.08;0.60;;;13.30;72.30;;;;;;7588086;19;20032;-72
2023/03/14 12:28:21;;;;;;;4.97;0.77;;;13.60;73.10;;;;;;7565706;19;20020;-73
2023/03/14 12:30:53;;;;;;;0.47;0.30;;;13.80;70.50;;;;;;7575043;19;20050;-72
2023/03/14 12:33:30;;;;;;;0.50;0.30;;;13.60;70.40;;;;;;7588434;19;20029;-73
2023/03/14 12:36:04;;;;;;;0.73;0.40;;;13.50;71.50;;;;;;7571112;19;21144;-73
2023/03/14 12:38:36;;;;;;;4.50;0.40;;;13.40;73.10;;;;;;7575959;19;20014;-73
2023/03/14 12:41:44;;;;;;;0.73;0.60;;;13.40;72.40;;;;;;7577581;19;20038;-71
2023/03/14 12:44:28;;;;;;;2.90;0.40;;;13.40;72.70;;;;;;7604688;19;20022;-73
2023/03/14 12:47:17;;;;;;;3.53;0.30;;;13.40;72.70;;;;;;7582654;19;20015;-71
2023/03/14 12:49:53;;;;;;;0.30;0.20;;;13.30;71.50;;;;;;7552044;19;20886;-72
2023/03/14 12:52:54;;;;;;;0.43;0.20;;;13.10;72.00;;;;;;7568305;19;20054;-69
2023/03/14 12:55:38;;;;;;;1.90;0.40;;;12.90;72.20;;;;;;7556050;19;20025;-73
2023/03/14 12:58:35;;;;;;;0.43;0.40;;;13.10;72.90;;;;;;7566486;19;20007;-72
2023/03/14 13:01:16;;;;;;;1.45;0.38;;;13.20;71.30;;;;;;7577669;19;20561;-73
2023/03/14 13:03:55;;;;;;;0.35;0.25;;;13.30;71.90;;;;;;7552421;19;20547;-72
2023/03/14 13:06:53;;;;;;;1.35;0.30;;;13.40;70.80;;;;;;7545556;19;20014;-72
2023/03/14 13:09:29;;;;;;;0.30;0.30;;;13.70;69.90;;;;;;7563348;19;21086;-72
2023/03/14 13:12:13;;;;;;;0.20;0.20;;;13.40;70.90;;;;;;7560020;19;20014;-72
2023/03/14 13:14:51;;;;;;;0.32;0.20;;;13.20;72.50;;;;;;7568596;19;20026;-71
2023/03/14 13:17:28;;;;;;;0.70;0.40;;;12.90;74.50;;;;;;7528652;19;20021;-72
2023/03/14 13:20:18;;;;;;;0.30;0.20;;;12.80;74.40;;;;;;7553043;19;20018;-73
2023/03/14 13:22:50;;;;;;;0.45;0.30;;;12.80;74.60;;;;;;7538438;19;20011;-72
2023/03/14 13:25:23;;;;;;;0.40;0.25;;;12.70;74.50;;;;;;7561479;19;20135;-72
2023/03/14 13:27:55;;;;;;;0.20;0.20;;;12.60;74.80;;;;;;7576874;19;20018;-73
2023/03/14 13:30:36;;;;;;;0.20;0.20;;;12.60;76.00;;;;;;7559428;19;20049;-72
2023/03/14 13:33:14;;;;;;;0.30;0.20;;;12.40;75.90;;;;;;7539416;19;20021;-72
2023/03/14 13:35:54;;;;;;;3.65;0.40;;;12.30;75.10;;;;;;7568257;19;20019;-74
2023/03/14 13:38:28;;;;;;;1.98;0.20;;;12.20;75.40;;;;;;7574221;19;20630;-72
2023/03/14 13:41:07;;;;;;;1.05;0.38;;;12.10;76.40;;;;;;7575769;19;20020;-73
2023/03/14 13:43:41;;;;;;;0.80;0.30;;;12.00;77.00;;;;;;7574546;19;20015;-72
2023/03/14 13:46:16;;;;;;;1.02;0.30;;;11.90;77.40;;;;;;7584409;19;20101;-74
2023/03/14 13:48:57;;;;;;;2.13;0.20;;;12.00;78.90;;;;;;7596836;19;21167;-71